Airfield :
LOGIN :

Register | Disclaimer

   EN    FR    IT 

 










Legend :    VFR   Marginal VFR   IFR   Intensive IFR   Very Intensive IFR
Visi :
Ceiling :
>= 8 km
>= 3000ft
5 to 8 km
1000 to 3000 ft
1500m to 5 km
500 to 1000 ft
800 to 1500m
200 to 500 ft
< 800m
< 200 ft
Symbols :   Thunderstorms  Fog  Heavy snow  Heavy precipitations  Wind > 20 kt
SIGMETs :     Misc.  Thunderstorms  Icing  Turbulence  Mountain Waves  Volcanic Ashes







- Airport Elevation : 1411 ft
- IATA code : SZG


LOWS - Salzburg

CURRENT METAR :
  • 172250Z AUTO 27005KT 230V300 9999 FEW020 OVC070 00/M04 Q1025

EXPIRED METARs :
  • 172220Z AUTO 28009KT 240V320 9999 FEW026 SCT030 BKN070 00/M04 Q1025 R15/29//95
  • 172150Z 27010KT 9999 FEW010 SCT027 BKN040 01/M04 Q1025 R88///////
  • 172120Z 28010KT 9999 FEW010 SCT027 BKN036 01/M04 Q1025 R15/590295 TEMPO 4000 -SHSN
  • 172050Z 28009KT 9999 FEW010 SCT028 BKN050 00/M03 Q1025 R15/590295 TEMPO 4000 -SHSN
  • 172020Z 28010KT 9999 FEW010 SCT028 BKN050 01/M03 Q1025 R15/590295 TEMPO 4000 -SHSN

TAF TAF LOWS
Valid from the 17 at 18:00 until the 18 at 18:00 UTC


171715Z 1718/1818 24005KT 8000 -SN SCT025 BKN045 TX01/1813Z TNM02/1807Z
TEMPO 1718/1724 29012KT 2000 SHSN SCT006 BKN012
PROB30
TEMPO 1718/1722 1200 VV006
BECMG 1804/1806 16006KT 9999 NSW FEW030 BKN050
No reported NOTAMs for that airfield.



MET'MAP, your aeronautical weather chart ! - Copyright ORBIFLY December 2007 - Disclaimer

ORBIFLY MET'MAP TEAM :

Programming & Development : Alexandra Zaïnal
Concept & Development : Baudouin d'Aumeries
Co-Development & Prog : Marc-Olivier Méhu
Technical & hardware support : Manuel Goepfert

Contact : metmap@orbifly.com




SOURCES & CREDITS :

   NOAA